Time;durP1;ratioP1;P1;durP2;ratioP2;P2;SDS_P1;SDS_P2;PMS_P1;PMS_P2;Temp;Humidity;BMP_temperature;BMP_pressure;BME280_temperature;BME280_humidity;BME280_pressure;Samples;Min_cycle;Max_cycle;Signal;HPM_P1;HPM_P2
2022/05/21 00:00:25;;;;;;;7.53;4.88;;;15.20;99.90;;;;;;5045249;28;20131;-80
2022/05/21 00:02:51;;;;;;;10.65;5.07;;;15.30;99.90;;;;;;5051810;28;20063;-76
2022/05/21 00:05:18;;;;;;;9.77;5.47;;;14.10;99.90;;;;;;5035127;28;20033;-80
2022/05/21 00:07:44;;;;;;;8.27;4.40;;;14.30;99.90;;;;;;5015176;28;20059;-78
2022/05/21 00:10:14;;;;;;;6.93;4.65;;;14.30;99.90;;;;;;5032016;28;20095;-81
2022/05/21 00:12:41;;;;;;;8.38;4.90;;;13.80;99.90;;;;;;5035357;28;20036;-76
2022/05/21 00:15:08;;;;;;;7.68;4.90;;;16.50;99.90;;;;;;5040427;28;20056;-76
2022/05/21 00:17:34;;;;;;;10.23;5.20;;;13.80;99.90;;;;;;5015417;28;20041;-76
2022/05/21 00:20:00;;;;;;;9.27;5.15;;;15.70;99.90;;;;;;5028023;28;20067;-78
2022/05/21 00:22:26;;;;;;;15.60;5.53;;;15.80;99.90;;;;;;5048827;28;20044;-77
2022/05/21 00:24:52;;;;;;;9.23;6.30;;;15.40;99.90;;;;;;5050783;28;20036;-76
2022/05/21 00:27:18;;;;;;;9.85;5.78;;;14.70;99.90;;;;;;5052014;28;20057;-80
2022/05/21 00:29:44;;;;;;;13.32;6.13;;;14.30;99.90;;;;;;5042994;28;20198;-81
2022/05/21 00:32:10;;;;;;;10.55;6.38;;;15.10;99.90;;;;;;5015393;28;20539;-79
2022/05/21 00:34:36;;;;;;;11.82;6.18;;;15.00;99.90;;;;;;5032395;28;20135;-80
2022/05/21 00:37:03;;;;;;;8.20;6.13;;;17.00;99.90;;;;;;5028214;28;20045;-80
2022/05/21 00:39:29;;;;;;;8.85;5.90;;;14.50;99.90;;;;;;5033556;28;20091;-77
2022/05/21 00:41:55;;;;;;;11.35;6.50;;;15.00;99.90;;;;;;5047862;28;20041;-81
2022/05/21 00:44:20;;;;;;;8.45;5.68;;;15.80;99.90;;;;;;5034748;28;20041;-81
2022/05/21 00:46:48;;;;;;;12.23;5.75;;;14.90;99.90;;;;;;5050634;28;20037;-78
2022/05/21 00:49:15;;;;;;;14.23;6.30;;;15.80;99.90;;;;;;5030524;28;20367;-80
2022/05/21 00:51:47;;;;;;;13.30;6.85;;;15.90;99.90;;;;;;5032707;28;20048;-78
2022/05/21 00:54:15;;;;;;;14.55;7.38;;;14.30;99.90;;;;;;5031050;28;20584;-77
2022/05/21 00:56:50;;;;;;;15.55;8.27;;;14.90;99.90;;;;;;5048370;28;20091;-77
2022/05/21 01:02:04;;;;;;;17.92;9.55;;;17.30;99.90;;;;;;5039844;28;20100;-79
2022/05/21 01:04:31;;;;;;;16.38;9.48;;;17.50;99.90;;;;;;5031460;28;20064;-80
2022/05/21 01:07:00;;;;;;;15.30;9.25;;;15.20;99.90;;;;;;5001531;28;20048;-77
2022/05/21 01:09:26;;;;;;;12.65;9.80;;;16.10;99.90;;;;;;5049721;28;20029;-76
2022/05/21 01:11:53;;;;;;;20.45;10.75;;;16.50;99.90;;;;;;5026219;28;20397;-77
2022/05/21 01:14:20;;;;;;;20.80;11.90;;;14.60;99.90;;;;;;5025400;28;20041;-76
2022/05/21 01:16:48;;;;;;;19.40;13.48;;;15.00;99.90;;;;;;5035870;28;20460;-78
2022/05/21 01:19:14;;;;;;;19.63;12.30;;;14.80;99.90;;;;;;5009238;28;20443;-78
2022/05/21 01:21:39;;;;;;;20.90;13.30;;;14.80;99.90;;;;;;5028944;28;20080;-78
2022/05/21 01:24:06;;;;;;;19.48;13.02;;;15.80;99.90;;;;;;5046330;28;20073;-80
2022/05/21 01:26:34;;;;;;;19.23;13.65;;;17.40;99.90;;;;;;5026147;28;20036;-78
2022/05/21 01:29:03;;;;;;;22.08;14.10;;;16.30;99.90;;;;;;5007654;28;20396;-79
2022/05/21 01:31:32;;;;;;;22.83;14.13;;;18.10;99.90;;;;;;5044171;28;20049;-81
2022/05/21 01:33:59;;;;;;;20.83;14.25;;;16.70;99.90;;;;;;5029465;28;20452;-79
2022/05/21 01:36:25;;;;;;;24.25;14.52;;;17.30;99.90;;;;;;5022344;28;20440;-80
2022/05/21 01:38:51;;;;;;;22.00;14.68;;;15.80;99.90;;;;;;5044420;28;20128;-75
2022/05/21 01:41:17;;;;;;;25.15;16.40;;;18.80;99.90;;;;;;5044323;28;20598;-73
2022/05/21 01:46:29;;;;;;;22.63;15.55;;;19.20;99.90;;;;;;5045324;28;20120;-79
2022/05/21 01:48:54;;;;;;;30.38;16.90;;;19.30;99.90;;;;;;5040905;28;20040;-77
2022/05/21 01:51:20;;;;;;;31.27;17.40;;;19.40;99.90;;;;;;5028219;28;20130;-78
2022/05/21 01:53:46;;;;;;;26.80;18.20;;;18.00;99.90;;;;;;5039724;28;20104;-77
2022/05/21 01:56:13;;;;;;;27.33;18.40;;;17.90;99.90;;;;;;5023840;28;20045;-81
2022/05/21 01:58:40;;;;;;;28.15;18.67;;;18.00;99.90;;;;;;5027743;28;20067;-80
2022/05/21 02:01:07;;;;;;;24.52;18.27;;;18.40;99.90;;;;;;5044069;28;20446;-82
2022/05/21 02:03:33;;;;;;;26.92;17.90;;;16.50;99.90;;;;;;5029131;28;20037;-80
2022/05/21 02:05:59;;;;;;;29.70;18.55;;;17.80;99.90;;;;;;5045269;28;20488;-78
2022/05/21 02:08:24;;;;;;;32.05;20.00;;;16.90;99.90;;;;;;5023299;28;20045;-77
2022/05/21 02:10:51;;;;;;;29.20;20.08;;;16.60;99.90;;;;;;5013101;28;20087;-79
2022/05/21 02:13:23;;;;;;;30.02;19.70;;;17.60;99.90;;;;;;5029288;28;20045;-77
2022/05/21 02:15:49;;;;;;;34.20;20.85;;;20.10;99.90;;;;;;5042568;28;20428;-78
2022/05/21 02:18:15;;;;;;;25.70;19.48;;;17.70;99.90;;;;;;5039656;28;20568;-80
2022/05/21 02:20:41;;;;;;;29.55;20.60;;;17.80;99.90;;;;;;5038860;28;20056;-77
2022/05/21 02:23:09;;;;;;;36.53;22.23;;;18.50;99.90;;;;;;5041786;28;20471;-78
2022/05/21 02:25:35;;;;;;;33.88;22.23;;;20.10;99.90;;;;;;5041671;28;20397;-77
2022/05/21 02:28:00;;;;;;;29.45;21.98;;;17.50;99.90;;;;;;5042660;28;20047;-78
2022/05/21 02:30:26;;;;;;;30.05;21.73;;;20.40;99.90;;;;;;5027198;28;20045;-79
2022/05/21 02:32:52;;;;;;;32.72;22.95;;;17.50;99.90;;;;;;5030708;28;20045;-77
2022/05/21 02:35:18;;;;;;;35.35;24.10;;;17.80;99.90;;;;;;5010999;28;20041;-78
2022/05/21 02:40:28;;;;;;;36.40;25.33;;;20.60;99.90;;;;;;5027891;28;20063;-79
2022/05/21 02:42:55;;;;;;;40.15;27.50;;;20.40;99.90;;;;;;5008436;28;20033;-76
2022/05/21 02:45:24;;;;;;;37.50;27.05;;;20.70;99.90;;;;;;5025858;28;20038;-78
2022/05/21 02:47:50;;;;;;;38.20;26.40;;;18.40;99.90;;;;;;5017978;28;20045;-75
2022/05/21 02:50:20;;;;;;;43.42;27.20;;;21.10;99.90;;;;;;5023114;28;20056;-76
2022/05/21 02:52:45;;;;;;;38.95;24.10;;;18.60;99.90;;;;;;5035676;28;20081;-78
2022/05/21 02:55:13;;;;;;;41.42;25.50;;;17.90;99.90;;;;;;4996651;28;20132;-79
2022/05/21 02:57:40;;;;;;;41.75;24.58;;;21.20;99.90;;;;;;5038039;28;20045;-79
2022/05/21 03:00:13;;;;;;;38.35;24.05;;;18.60;99.90;;;;;;5038792;28;20041;-79
2022/05/21 03:02:39;;;;;;;32.35;21.10;;;17.70;99.90;;;;;;5023268;28;20156;-80
2022/05/21 03:05:06;;;;;;;36.70;22.30;;;18.70;99.90;;;;;;5022387;28;20673;-78
2022/05/21 03:07:39;;;;;;;41.10;22.25;;;21.30;99.90;;;;;;5026195;28;20374;-80
2022/05/21 03:10:22;;;;;;;32.15;21.10;;;18.30;99.90;;;;;;5040504;28;20041;-80
2022/05/21 03:12:52;;;;;;;34.78;20.38;;;18.10;99.90;;;;;;5043639;28;20040;-82
2022/05/21 03:15:19;;;;;;;32.40;19.00;;;21.70;99.90;;;;;;5040802;28;20037;-79
2022/05/21 03:17:46;;;;;;;37.30;20.65;;;20.10;99.90;;;;;;5036022;28;20589;-77
2022/05/21 03:20:14;;;;;;;33.03;19.05;;;19.50;99.90;;;;;;5034705;28;20125;-79
2022/05/21 03:22:41;;;;;;;29.95;17.52;;;18.00;99.90;;;;;;5023303;28;21415;-77
2022/05/21 03:25:08;;;;;;;29.23;16.85;;;18.30;99.90;;;;;;5008243;28;20095;-79
2022/05/21 03:27:35;;;;;;;30.55;15.55;;;22.00;99.90;;;;;;5026160;28;20138;-80
2022/05/21 03:30:02;;;;;;;27.90;15.48;;;21.30;99.90;;;;;;5043877;28;20045;-77
2022/05/21 03:32:27;;;;;;;24.17;16.10;;;20.40;99.90;;;;;;5040754;28;20042;-78
2022/05/21 03:34:53;;;;;;;28.13;14.63;;;22.00;99.90;;;;;;5011588;28;20588;-76
2022/05/21 03:37:19;;;;;;;25.80;13.65;;;19.80;99.90;;;;;;5024754;28;20041;-76
2022/05/21 03:39:44;;;;;;;24.55;13.70;;;22.00;99.90;;;;;;5021677;28;20116;-81
2022/05/21 03:42:10;;;;;;;28.35;12.90;;;18.20;99.90;;;;;;5026334;28;20029;-81
2022/05/21 03:44:36;;;;;;;26.17;12.27;;;21.80;99.90;;;;;;5027366;28;20102;-75
2022/05/21 03:47:02;;;;;;;21.33;10.82;;;21.60;99.90;;;;;;5011610;28;20393;-77
2022/05/21 03:49:28;;;;;;;18.50;9.38;;;21.60;99.90;;;;;;5053721;28;20041;-78
2022/05/21 03:51:54;;;;;;;14.85;9.02;;;19.40;99.90;;;;;;5021916;28;20125;-78
2022/05/21 03:54:19;;;;;;;20.10;8.50;;;20.20;99.90;;;;;;5000440;28;20041;-78
2022/05/21 03:56:45;;;;;;;26.30;8.00;;;21.60;99.90;;;;;;5027996;28;20052;-78
2022/05/21 03:59:11;;;;;;;20.90;8.32;;;19.10;99.90;;;;;;5044840;28;20045;-79
2022/05/21 04:01:38;;;;;;;18.08;7.60;;;20.20;99.90;;;;;;5033417;28;20051;-78
2022/05/21 04:04:04;;;;;;;23.38;7.43;;;21.30;99.90;;;;;;5028605;28;20037;-78
2022/05/21 04:06:29;;;;;;;21.23;7.03;;;20.90;99.90;;;;;;5023652;28;20038;-78
2022/05/21 04:08:55;;;;;;;23.27;7.85;;;19.20;99.90;;;;;;5025443;28;20059;-78
2022/05/21 04:11:21;;;;;;;15.18;6.10;;;19.20;99.90;;;;;;5031665;28;20135;-77
2022/05/21 04:13:46;;;;;;;21.65;7.05;;;18.80;99.90;;;;;;5012430;28;20041;-78
2022/05/21 04:16:12;;;;;;;22.35;7.15;;;18.90;99.90;;;;;;5013977;28;20539;-76
2022/05/21 04:18:38;;;;;;;16.80;6.22;;;20.00;99.90;;;;;;5007447;28;20135;-77
2022/05/21 04:21:03;;;;;;;18.77;6.50;;;18.70;99.90;;;;;;5011027;28;20434;-77
2022/05/21 04:23:29;;;;;;;18.65;5.20;;;21.20;99.90;;;;;;5011566;28;20056;-78
2022/05/21 04:25:55;;;;;;;22.40;6.45;;;19.80;99.90;;;;;;5044358;28;20052;-76
2022/05/21 04:28:20;;;;;;;23.42;6.20;;;22.30;99.90;;;;;;5027424;28;20575;-77
2022/05/21 04:30:46;;;;;;;14.18;5.03;;;18.90;99.90;;;;;;4998387;28;20417;-77
2022/05/21 04:33:12;;;;;;;17.08;5.53;;;21.20;99.90;;;;;;5025364;28;20041;-79
2022/05/21 04:38:22;;;;;;;16.00;5.07;;;19.50;99.90;;;;;;5027085;28;20048;-78
2022/05/21 04:40:48;;;;;;;14.77;5.00;;;21.70;99.90;;;;;;5025354;28;20079;-82
2022/05/21 04:43:13;;;;;;;15.25;4.40;;;21.90;99.90;;;;;;5009734;28;20040;-79
2022/05/21 04:45:39;;;;;;;16.17;4.82;;;19.20;99.90;;;;;;4999530;28;20081;-80
2022/05/21 04:48:07;;;;;;;14.20;4.95;;;20.60;99.90;;;;;;5026464;28;20049;-79
2022/05/21 04:50:38;;;;;;;12.45;4.05;;;19.20;99.90;;;;;;5012650;28;21748;-77
2022/05/21 04:53:05;;;;;;;10.68;3.72;;;19.10;99.90;;;;;;5023901;28;20071;-77
2022/05/21 04:55:30;;;;;;;13.77;4.82;;;22.20;99.90;;;;;;5030431;28;20083;-79
2022/05/21 04:57:56;;;;;;;11.20;4.13;;;19.10;99.90;;;;;;5012974;28;20072;-80
2022/05/21 05:00:22;;;;;;;11.65;3.75;;;21.90;99.90;;;;;;5047047;28;20090;-79
2022/05/21 05:02:48;;;;;;;13.00;3.80;;;19.50;99.90;;;;;;5045703;28;20361;-78
2022/05/21 05:05:14;;;;;;;12.90;4.03;;;20.00;99.90;;;;;;5011115;28;20144;-79
2022/05/21 05:07:40;;;;;;;13.77;4.00;;;19.80;99.90;;;;;;5043225;28;20471;-78
2022/05/21 05:10:08;;;;;;;14.68;4.20;;;19.90;99.90;;;;;;5057026;28;20098;-77
2022/05/21 05:12:33;;;;;;;10.55;3.22;;;22.00;99.90;;;;;;5043705;28;20120;-76
2022/05/21 05:15:00;;;;;;;14.30;3.80;;;21.70;99.90;;;;;;5037928;28;20510;-75
2022/05/21 05:17:26;;;;;;;11.25;3.45;;;19.30;99.90;;;;;;5027781;28;20063;-75
2022/05/21 05:19:54;;;;;;;12.57;3.50;;;21.30;99.90;;;;;;5043383;28;20045;-78
2022/05/21 05:22:21;;;;;;;12.82;3.42;;;21.50;99.90;;;;;;5019782;28;20029;-79
2022/05/21 05:24:46;;;;;;;11.30;3.40;;;19.40;99.90;;;;;;5011151;28;20404;-78
2022/05/21 05:27:12;;;;;;;8.30;3.05;;;20.70;99.90;;;;;;5020268;28;20091;-80
2022/05/21 05:29:38;;;;;;;10.15;3.63;;;21.10;99.90;;;;;;5040669;28;20041;-76
2022/05/21 05:32:05;;;;;;;6.43;3.03;;;21.10;99.90;;;;;;5032006;28;20048;-77
2022/05/21 05:34:31;;;;;;;9.65;3.60;;;18.90;99.90;;;;;;5040192;28;20033;-75
2022/05/21 05:36:56;;;;;;;13.15;3.70;;;20.70;99.90;;;;;;4995367;28;20393;-76
2022/05/21 05:39:22;;;;;;;7.38;2.78;;;18.80;99.90;;;;;;5025868;28;20045;-79
2022/05/21 05:41:48;;;;;;;10.68;3.17;;;18.70;99.90;;;;;;5026784;28;20044;-75
2022/05/21 05:44:14;;;;;;;12.27;3.28;;;19.90;99.90;;;;;;5026073;28;20044;-78
2022/05/21 05:46:40;;;;;;;11.55;3.13;;;19.80;99.90;;;;;;5026343;28;20037;-76
2022/05/21 05:49:05;;;;;;;10.45;3.28;;;19.60;99.90;;;;;;4995310;28;20052;-77
2022/05/21 05:51:33;;;;;;;6.20;2.38;;;18.00;99.90;;;;;;5003376;28;20120;-75
2022/05/21 05:53:58;;;;;;;12.80;3.22;;;19.20;99.90;;;;;;5013040;28;20401;-75
2022/05/21 05:56:24;;;;;;;9.60;3.20;;;18.60;99.90;;;;;;4998299;28;20042;-75
2022/05/21 06:01:34;;;;;;;16.55;3.53;;;18.40;99.90;;;;;;5027302;28;20060;-75
2022/05/21 06:04:00;;;;;;;12.63;3.30;;;18.80;99.90;;;;;;5012423;28;20059;-78
2022/05/21 06:06:28;;;;;;;14.68;4.10;;;17.40;99.90;;;;;;5009608;28;20531;-78
2022/05/21 06:08:55;;;;;;;12.68;3.42;;;17.10;99.90;;;;;;5042272;28;20060;-78
2022/05/21 06:11:20;;;;;;;9.32;3.13;;;18.10;99.90;;;;;;5041416;28;20037;-75
2022/05/21 06:13:46;;;;;;;9.07;3.17;;;17.30;99.90;;;;;;5019418;28;20067;-80
2022/05/21 06:16:12;;;;;;;12.68;3.35;;;18.70;99.90;;;;;;5038752;28;20055;-77
2022/05/21 06:18:38;;;;;;;10.30;3.40;;;17.80;99.90;;;;;;5009366;28;20041;-76
2022/05/21 06:21:05;;;;;;;9.30;3.10;;;17.50;99.90;;;;;;4996074;28;20056;-75
2022/05/21 06:23:32;;;;;;;6.85;2.38;;;18.40;99.90;;;;;;5026427;28;20091;-77
2022/05/21 06:26:00;;;;;;;11.50;3.47;;;17.00;99.90;;;;;;5040779;28;20119;-75
2022/05/21 06:28:26;;;;;;;11.32;3.55;;;18.10;99.90;;;;;;5041150;28;20447;-78
2022/05/21 06:30:53;;;;;;;9.27;2.85;;;18.20;99.90;;;;;;5042175;28;20041;-78
2022/05/21 06:33:25;;;;;;;10.15;2.60;;;17.10;99.90;;;;;;5026364;28;20491;-75
2022/05/21 06:36:12;;;;;;;14.82;3.70;;;17.90;99.90;;;;;;5040209;28;20496;-75
2022/05/21 06:38:39;;;;;;;12.15;3.20;;;16.70;99.90;;;;;;5024069;28;20048;-76
2022/05/21 06:41:05;;;;;;;8.77;2.80;;;17.40;99.90;;;;;;5042263;28;20145;-77
2022/05/21 06:43:32;;;;;;;13.63;3.55;;;17.00;99.90;;;;;;5048304;28;20051;-76
2022/05/21 06:45:58;;;;;;;10.68;2.90;;;17.10;99.90;;;;;;5021650;28;20037;-77
2022/05/21 06:48:24;;;;;;;10.00;3.25;;;16.60;99.90;;;;;;5005875;28;20172;-77
2022/05/21 06:50:49;;;;;;;8.27;3.28;;;16.20;99.90;;;;;;5031764;28;20107;-77
2022/05/21 06:53:16;;;;;;;6.18;2.28;;;15.80;99.90;;;;;;5029045;28;20047;-76
2022/05/21 06:55:42;;;;;;;7.30;2.78;;;16.20;99.90;;;;;;5031100;28;20029;-76
2022/05/21 06:58:08;;;;;;;9.02;3.33;;;16.80;99.90;;;;;;5015754;28;20928;-75
2022/05/21 07:00:34;;;;;;;10.15;2.80;;;16.20;99.90;;;;;;5050186;28;20435;-77
2022/05/21 07:03:00;;;;;;;9.32;2.78;;;16.10;99.90;;;;;;5031245;28;20346;-76
2022/05/21 07:08:22;;;;;;;7.80;2.70;;;16.50;99.90;;;;;;5066167;28;20048;-76
2022/05/21 07:10:48;;;;;;;9.52;3.15;;;16.30;99.90;;;;;;5049931;28;20049;-75
2022/05/21 07:13:15;;;;;;;8.48;2.67;;;15.80;99.90;;;;;;5049087;28;20048;-76
2022/05/21 07:15:42;;;;;;;11.40;3.15;;;15.80;99.90;;;;;;5047217;28;20048;-75
2022/05/21 07:18:08;;;;;;;10.77;2.92;;;16.30;99.90;;;;;;5011787;28;20421;-74
2022/05/21 07:20:33;;;;;;;10.23;3.58;;;15.80;99.90;;;;;;5013092;28;20045;-75
2022/05/21 07:23:00;;;;;;;12.43;3.50;;;16.40;99.90;;;;;;5046383;28;20409;-75
2022/05/21 07:25:28;;;;;;;6.15;2.50;;;16.80;99.90;;;;;;5027459;28;20068;-75
2022/05/21 07:27:54;;;;;;;10.68;3.15;;;16.30;99.90;;;;;;5021942;28;20044;-75
2022/05/21 07:30:20;;;;;;;5.65;2.75;;;16.30;99.90;;;;;;5028393;28;20043;-75
2022/05/21 07:32:48;;;;;;;12.40;2.80;;;16.10;99.90;;;;;;5044645;28;20635;-75
2022/05/21 07:35:15;;;;;;;10.15;2.95;;;16.20;99.90;;;;;;5029427;28;20711;-75
2022/05/21 07:37:41;;;;;;;10.65;3.50;;;16.30;99.90;;;;;;5039495;28;20045;-75
2022/05/21 07:40:09;;;;;;;8.60;2.83;;;16.10;99.90;;;;;;5041561;28;20095;-75
2022/05/21 07:42:36;;;;;;;10.52;3.03;;;16.20;99.90;;;;;;5020670;28;20041;-76
2022/05/21 07:45:03;;;;;;;7.43;2.45;;;16.30;99.90;;;;;;5043491;28;20044;-76
2022/05/21 07:47:28;;;;;;;11.40;3.03;;;16.30;99.90;;;;;;5027016;28;20033;-75
2022/05/21 07:49:56;;;;;;;6.45;2.25;;;16.30;99.90;;;;;;5043457;28;20103;-75
2022/05/21 07:52:23;;;;;;;12.57;3.17;;;15.70;99.90;;;;;;5027276;28;20033;-73
2022/05/21 07:54:48;;;;;;;10.63;2.55;;;16.40;99.90;;;;;;5028754;28;20033;-74
2022/05/21 07:57:14;;;;;;;6.38;2.63;;;16.00;99.90;;;;;;5026573;28;20098;-74
2022/05/21 07:59:40;;;;;;;8.05;2.67;;;16.20;99.90;;;;;;5044668;28;20045;-73
2022/05/21 08:02:11;;;;;;;6.55;2.40;;;16.20;99.90;;;;;;5029840;28;20055;-73
2022/05/21 08:04:38;;;;;;;7.28;2.88;;;16.50;99.90;;;;;;5026072;28;20055;-74
2022/05/21 08:07:04;;;;;;;8.77;2.55;;;16.30;99.90;;;;;;5044832;28;20045;-74
2022/05/21 08:09:30;;;;;;;8.88;2.60;;;16.40;99.90;;;;;;5030010;28;20469;-74
2022/05/21 08:11:56;;;;;;;10.13;2.65;;;16.20;99.90;;;;;;5012244;28;20441;-74
2022/05/21 08:14:21;;;;;;;7.82;2.20;;;16.60;99.90;;;;;;5026106;28;20069;-74
2022/05/21 08:16:49;;;;;;;13.70;3.15;;;16.60;99.90;;;;;;5045874;28;20049;-75
2022/05/21 08:19:16;;;;;;;10.57;2.88;;;16.30;99.90;;;;;;5037163;28;20045;-75
2022/05/21 08:21:42;;;;;;;7.18;2.53;;;16.50;99.90;;;;;;5026929;28;20029;-74
2022/05/21 08:26:56;;;;;;;12.73;2.50;;;15.90;99.90;;;;;;5041604;28;20079;-74
2022/05/21 08:29:29;;;;;;;9.20;2.38;;;16.10;99.90;;;;;;5020780;28;20041;-74
2022/05/21 08:31:56;;;;;;;8.50;2.58;;;16.10;99.90;;;;;;5031654;28;20048;-74
2022/05/21 08:34:23;;;;;;;6.55;2.10;;;16.30;99.90;;;;;;5034377;28;20127;-73
2022/05/21 08:36:49;;;;;;;9.50;2.20;;;16.30;99.90;;;;;;5045233;28;20393;-74
2022/05/21 08:39:16;;;;;;;11.13;2.50;;;16.70;99.90;;;;;;5023697;28;20045;-75
2022/05/21 08:41:54;;;;;;;5.90;2.10;;;16.30;99.90;;;;;;5009106;28;20033;-75
2022/05/21 08:44:46;;;;;;;8.25;2.38;;;16.20;99.90;;;;;;5021246;28;20048;-75
2022/05/21 08:47:27;;;;;;;9.90;2.72;;;16.40;99.90;;;;;;5009808;28;20079;-75
2022/05/21 08:50:03;;;;;;;9.20;2.65;;;16.20;99.90;;;;;;5047148;28;20094;-75
2022/05/21 08:52:54;;;;;;;8.02;2.85;;;16.50;99.90;;;;;;5046947;28;20076;-75
2022/05/21 08:55:26;;;;;;;7.90;2.42;;;17.20;99.90;;;;;;5020752;28;20047;-74
2022/05/21 08:57:57;;;;;;;10.73;2.47;;;17.00;99.90;;;;;;5043194;28;20056;-74
2022/05/21 09:00:44;;;;;;;12.10;2.58;;;16.90;99.90;;;;;;5025146;28;20134;-74
2022/05/21 09:03:12;;;;;;;9.50;2.33;;;16.70;99.90;;;;;;5026760;28;20130;-74
2022/05/21 09:05:42;;;;;;;9.90;2.53;;;16.60;99.90;;;;;;5032110;28;20037;-74
2022/05/21 09:08:23;;;;;;;8.57;2.63;;;17.40;99.90;;;;;;5032210;28;20041;-74
2022/05/21 09:11:06;;;;;;;9.20;2.50;;;17.20;99.90;;;;;;5033366;28;20043;-74
2022/05/21 09:13:59;;;;;;;10.23;2.67;;;17.40;99.90;;;;;;5021294;28;20079;-75
2022/05/21 09:19:09;;;;;;;10.38;2.22;;;16.80;99.90;;;;;;5047460;28;20140;-74
2022/05/21 09:21:42;;;;;;;8.88;2.83;;;16.90;99.90;;;;;;5032098;28;20120;-74
2022/05/21 09:24:08;;;;;;;19.52;2.90;;;16.80;99.90;;;;;;5050353;28;20049;-74
2022/05/21 09:26:52;;;;;;;8.35;2.38;;;16.40;99.90;;;;;;5012641;28;20026;-74
2022/05/21 09:29:31;;;;;;;8.30;2.10;;;16.10;99.90;;;;;;5037582;28;20405;-74
2022/05/21 09:31:58;;;;;;;7.32;2.00;;;16.50;99.90;;;;;;5031045;28;20151;-74
2022/05/21 09:34:30;;;;;;;10.00;2.63;;;16.70;99.90;;;;;;5046382;28;20068;-74
2022/05/21 09:36:57;;;;;;;5.85;1.75;;;16.50;99.90;;;;;;5047815;28;20044;-74
2022/05/21 09:39:31;;;;;;;8.30;2.60;;;16.60;99.90;;;;;;5046756;28;20045;-74
2022/05/21 09:45:22;;;;;;;9.52;2.45;;;16.90;99.90;;;;;;5043097;28;20079;-71
2022/05/21 09:47:51;;;;;;;5.97;2.10;;;17.20;99.90;;;;;;5043602;28;20049;-70
2022/05/21 09:50:25;;;;;;;8.85;2.40;;;17.20;99.90;;;;;;5032006;28;20412;-69
2022/05/21 09:52:52;;;;;;;9.02;2.30;;;17.00;99.90;;;;;;5050317;28;20364;-71
2022/05/21 09:55:25;;;;;;;7.60;2.10;;;17.70;99.90;;;;;;5024274;28;20041;-71
2022/05/21 09:57:51;;;;;;;11.55;2.70;;;17.50;99.90;;;;;;5037976;28;20041;-73
2022/05/21 10:00:30;;;;;;;8.25;2.00;;;17.40;99.90;;;;;;5048498;28;20970;-72
2022/05/21 10:03:03;;;;;;;6.57;2.10;;;18.00;99.90;;;;;;5029399;28;20198;-73
2022/05/21 10:05:46;;;;;;;5.27;1.77;;;18.50;99.90;;;;;;5013727;28;20095;-71
2022/05/21 10:11:26;;;;;;;5.63;2.15;;;18.40;99.90;;;;;;5047799;28;20055;-73
2022/05/21 10:14:00;;;;;;;6.95;2.08;;;18.00;99.90;;;;;;5045781;28;20037;-72
2022/05/21 10:16:57;;;;;;;6.40;2.13;;;17.30;99.90;;;;;;5033422;28;20053;-71
2022/05/21 10:19:30;;;;;;;5.47;1.80;;;18.00;99.90;;;;;;5030370;28;20045;-72
2022/05/21 10:22:10;;;;;;;7.13;1.83;;;18.00;99.90;;;;;;5029756;28;20835;-72
2022/05/21 10:24:55;;;;;;;7.30;1.85;;;18.10;99.90;;;;;;5029543;28;20037;-71
2022/05/21 10:27:32;;;;;;;7.60;1.77;;;18.40;99.90;;;;;;5025408;28;20039;-71
2022/05/21 10:30:06;;;;;;;8.30;2.20;;;18.30;99.90;;;;;;5028614;28;20045;-71
2022/05/21 10:32:54;;;;;;;6.22;2.33;;;17.80;99.90;;;;;;5041735;28;20056;-71
2022/05/21 10:35:29;;;;;;;8.38;2.38;;;18.10;99.90;;;;;;5012463;28;20079;-71
2022/05/21 10:38:09;;;;;;;6.47;2.35;;;18.90;99.90;;;;;;5046642;28;20045;-71
2022/05/21 10:40:59;;;;;;;5.70;1.75;;;17.60;99.90;;;;;;5046701;28;20445;-71
2022/05/21 10:43:54;;;;;;;5.70;1.60;;;17.40;99.90;;;;;;5031722;28;20083;-72
2022/05/21 10:46:44;;;;;;;8.23;2.08;;;17.30;99.90;;;;;;5031593;28;21009;-72
2022/05/21 10:49:29;;;;;;;6.65;2.00;;;17.70;99.90;;;;;;5016028;28;20068;-72
2022/05/21 10:52:07;;;;;;;7.05;1.98;;;17.30;99.90;;;;;;5025698;28;20049;-72
2022/05/21 10:54:57;;;;;;;7.13;1.52;;;17.20;99.90;;;;;;5029047;28;20041;-72
2022/05/21 10:57:38;;;;;;;10.73;2.47;;;16.80;99.90;;;;;;5038505;28;20044;-73
2022/05/21 11:00:08;;;;;;;7.45;1.92;;;16.90;99.90;;;;;;5044986;28;20049;-73
2022/05/21 11:02:52;;;;;;;7.68;2.30;;;17.90;99.90;;;;;;5047880;28;20060;-74
2022/05/21 11:05:53;;;;;;;5.80;1.30;;;18.30;99.90;;;;;;5036106;28;20140;-74
2022/05/21 11:08:37;;;;;;;8.80;1.70;;;18.30;99.90;;;;;;5054190;28;20052;-74
2022/05/21 11:11:07;;;;;;;6.43;2.58;;;17.70;99.90;;;;;;5020923;28;20048;-73
2022/05/21 11:13:39;;;;;;;5.28;1.50;;;18.00;99.90;;;;;;5055404;28;20044;-74
2022/05/21 11:16:12;;;;;;;3.42;1.42;;;18.90;99.90;;;;;;5053873;28;20053;-74
2022/05/21 11:18:57;;;;;;;7.20;1.70;;;18.50;99.90;;;;;;5033714;28;20106;-73
2022/05/21 11:21:37;;;;;;;3.38;1.45;;;17.80;99.90;;;;;;5037403;28;20041;-73
2022/05/21 11:24:21;;;;;;;7.13;1.85;;;17.20;99.90;;;;;;5037370;28;20877;-74
2022/05/21 11:27:13;;;;;;;6.32;1.73;;;17.30;99.90;;;;;;5054058;28;20045;-74
2022/05/21 11:29:51;;;;;;;4.60;1.42;;;18.00;99.90;;;;;;5037658;28;20041;-74
2022/05/21 11:38:39;;;;;;;6.35;1.70;;;19.40;99.90;;;;;;5050104;28;20096;-75
2022/05/21 11:41:27;;;;;;;6.47;1.77;;;19.00;99.90;;;;;;5036827;28;20091;-74
2022/05/21 11:47:05;;;;;;;5.72;1.48;;;18.40;99.90;;;;;;5044361;28;20133;-74
2022/05/21 11:49:51;;;;;;;6.85;1.60;;;17.70;99.90;;;;;;5054637;28;20049;-74
2022/05/21 11:52:29;;;;;;;6.57;1.83;;;18.00;99.90;;;;;;5048722;28;20513;-73
2022/05/21 11:54:55;;;;;;;5.05;1.73;;;18.70;99.90;;;;;;5034735;28;20127;-72
2022/05/21 11:57:41;;;;;;;4.28;1.58;;;19.40;99.90;;;;;;5018656;28;20087;-73
2022/05/21 12:00:18;;;;;;;4.50;1.30;;;19.60;99.90;;;;;;5054656;28;20055;-73
2022/05/21 12:02:53;;;;;;;3.90;1.52;;;19.80;99.90;;;;;;5021165;28;20088;-73
2022/05/21 12:05:37;;;;;;;13.13;2.22;;;19.60;99.90;;;;;;5036613;28;20041;-73
2022/05/21 12:08:27;;;;;;;6.35;1.60;;;19.40;99.90;;;;;;5033484;28;20041;-73
2022/05/21 12:11:14;;;;;;;5.50;1.88;;;18.90;99.90;;;;;;5017084;28;20128;-73
2022/05/21 12:14:06;;;;;;;7.18;2.00;;;19.40;99.90;;;;;;5026664;28;20079;-73
2022/05/21 12:16:31;;;;;;;6.70;1.80;;;19.30;99.90;;;;;;5034139;28;20037;-73
2022/05/21 12:19:03;;;;;;;7.63;2.03;;;19.00;99.90;;;;;;5046153;28;20063;-73
2022/05/21 12:21:39;;;;;;;5.40;1.60;;;19.00;99.90;;;;;;5032272;28;20049;-73
2022/05/21 12:24:05;;;;;;;7.45;1.48;;;19.40;99.90;;;;;;5031402;28;20916;-73
2022/05/21 12:26:39;;;;;;;6.10;1.95;;;19.70;99.90;;;;;;5022479;28;20061;-74
2022/05/21 12:29:27;;;;;;;6.82;2.15;;;19.60;99.90;;;;;;5051574;28;20041;-73
2022/05/21 12:31:56;;;;;;;7.25;1.80;;;19.70;99.90;;;;;;5050652;28;20083;-73
2022/05/21 12:34:27;;;;;;;5.05;1.83;;;18.70;99.90;;;;;;5025303;28;20038;-73
2022/05/21 12:37:04;;;;;;;4.88;1.50;;;18.30;99.90;;;;;;5038974;28;20523;-73
2022/05/21 12:39:45;;;;;;;7.43;1.80;;;17.70;99.90;;;;;;5031864;28;20099;-72
2022/05/21 12:42:25;;;;;;;4.25;1.50;;;17.50;99.90;;;;;;5048074;28;20079;-73
2022/05/21 12:44:52;;;;;;;6.00;2.00;;;17.60;99.90;;;;;;5034624;28;20528;-72
2022/05/21 12:47:26;;;;;;;4.45;1.85;;;18.00;99.90;;;;;;5043223;28;20441;-73
2022/05/21 12:49:52;;;;;;;3.40;1.50;;;17.80;99.90;;;;;;5048041;28;20408;-73
2022/05/21 12:52:29;;;;;;;5.85;1.30;;;17.90;99.90;;;;;;5034463;28;20479;-73
2022/05/21 12:55:21;;;;;;;7.38;1.77;;;17.70;99.90;;;;;;5034881;28;20104;-72
2022/05/21 12:57:52;;;;;;;4.40;1.17;;;17.70;99.90;;;;;;5042414;28;20057;-73
2022/05/21 13:00:21;;;;;;;4.20;1.25;;;17.60;99.90;;;;;;5048930;28;20125;-72
2022/05/21 13:02:50;;;;;;;6.47;1.70;;;17.80;99.90;;;;;;5033348;28;20057;-72
2022/05/21 13:05:31;;;;;;;3.15;1.30;;;17.80;99.90;;;;;;5032959;28;20049;-72
2022/05/21 13:08:01;;;;;;;3.78;1.33;;;17.50;99.90;;;;;;5043845;28;20040;-72
2022/05/21 13:10:30;;;;;;;5.88;1.40;;;18.10;99.90;;;;;;5048576;28;20040;-72
2022/05/21 13:13:10;;;;;;;5.90;1.33;;;18.90;99.90;;;;;;5050402;28;20048;-73
2022/05/21 13:15:52;;;;;;;3.85;1.20;;;19.40;99.90;;;;;;5034006;28;20612;-74
2022/05/21 13:18:31;;;;;;;5.68;1.50;;;20.00;99.90;;;;;;5042952;28;20040;-74
2022/05/21 13:21:53;;;;;;;3.75;1.00;;;19.20;99.90;;;;;;5050079;28;20535;-74
2022/05/21 13:24:46;;;;;;;7.18;1.60;;;18.90;99.90;;;;;;4988130;28;20069;-73
2022/05/21 13:27:17;;;;;;;4.80;1.45;;;19.10;99.90;;;;;;5048658;28;20785;-74
2022/05/21 13:29:45;;;;;;;4.43;1.30;;;19.00;99.90;;;;;;5023917;28;20397;-74
2022/05/21 13:32:29;;;;;;;4.43;1.60;;;18.60;99.90;;;;;;5046175;28;20076;-75
2022/05/21 13:35:01;;;;;;;5.68;1.70;;;18.70;99.90;;;;;;5041975;28;20051;-72